Adiyaman, Turkey

9:22 PM EEST on July 25, 2014 (GMT +0300)
SANLIURFA GAP (LTCS) Elev 2707 ft | 37.45 °N, 38.90 °E | Change Station

Current weather conditions updated 32 minutes ago

Clear
Clear
86 °F
Feels Like 85 °F
N
13
Wind Variable Wind from WSW

Tomorrow is forecast to be nearly the same temperature as today.

Today
High -- | Low -- °F
--% Chance of Precip.
Yesterday
High -- | Low -- °F
Precip. -- in
5:24 AM 7:41 PM
Waning Crescent, 1% visible
Pressure 29.68 in
Visibility -9999.0 miles
Clouds
Heat Index 85 °F
Dew Point 57 °F
Humidity 37%
Rainfall 0.00 in
Snow Depth Not available.
UV Not available.
Pollen Not available.
Air Quality Not available.
Flu Activity Not available.
METAR LTCS 251750Z 24011KT CAVOK 30/14 Q1005 RMK RWY22 22010KT

More Conditions Fewer Conditions

Pressure 29.68 in
Visibility -9999.0 miles
Clouds
Heat Index 85 °F
Dew Point 57 °F
Humidity 37%
Rainfall 0.00 in
Snow Depth Not available.
UV Not available.
Pollen Not available.
Air Quality Not available.
Flu Activity Not available.
METAR LTCS 251750Z 24011KT CAVOK 30/14 Q1005 RMK RWY22 22010KT

More Conditions Fewer Conditions

10-Day Weather Forecast

Almanac

Astronomy

Jul. 25, 2014 Rise Set
Actual Time 5:24 AM EEST 7:41 PM EEST
Civil Twilight 4:54 AM EEST 8:11 PM EEST
Nautical Twilight 4:18 AM EEST 8:47 PM EEST
Astronomical Twilight 3:38 AM EEST 9:27 PM EEST
Moon 4:04 AM EEST 6:25 PM EEST
Length of Visible Light 15h 16m
Length of Day
14h 17m
Tomorrow will be 1m 37s shorter.
Waning Crescent, 1% of the Moon is Illuminated
Today
Waning Crescent
Jul 26
New
Aug 3
First Quarter
Aug 10
Full
Aug 17
Last Quarter

Today's Extremes

Country Highs Country Lows

Community

WunderPhotos

Upload Photos

1,737,372 photos uploaded!

Nearby

Snow Depth

Not available.

Earthquake Activity

City Distance Mag. Time & Date
No recent earthquake activity has been reported nearby.
Minimum magnitude displayed is 2.5.

Coastal Water Temperatures

Place Temperature
No Stations Reporting

Nearby Weather Stations

There are no personal weather stations in this area.